createdAt,value
2017-11-23T00:00:01.460Z,4.40
2017-11-23T00:00:05.560Z,4.40
2017-11-23T00:00:10.342Z,4.30
2017-11-23T00:00:14.590Z,4.33
2017-11-23T00:00:18.839Z,4.40
2017-11-23T00:00:29.850Z,4.50
2017-11-23T00:00:34.125Z,4.53
2017-11-23T00:00:38.390Z,4.70
2017-11-23T00:00:43.432Z,4.70
2017-11-23T00:00:47.684Z,4.77
2017-11-23T00:00:51.936Z,4.65
2017-11-23T00:00:56.202Z,4.55
2017-11-23T00:01:01.248Z,4.70
2017-11-23T00:01:05.492Z,4.70
2017-11-23T00:01:09.737Z,4.80
2017-11-23T00:01:13.981Z,4.70
2017-11-23T00:01:18.224Z,4.80
2017-11-23T00:01:23.243Z,4.70
2017-11-23T00:01:28.267Z,4.77
2017-11-23T00:01:33.296Z,5.00
2017-11-23T00:01:38.310Z,5.10
2017-11-23T00:01:42.565Z,5.20
2017-11-23T00:01:46.805Z,5.20
2017-11-23T00:01:51.814Z,5.20
2017-11-23T00:01:56.076Z,5.18
2017-11-23T00:02:00.328Z,5.10
2017-11-23T00:02:05.351Z,5.10
2017-11-23T00:02:10.332Z,5.10
2017-11-23T00:02:14.584Z,5.13
2017-11-23T00:02:18.819Z,5.20
2017-11-23T00:02:23.083Z,5.20
2017-11-23T00:02:27.325Z,5.05
2017-11-23T00:02:31.605Z,4.95
2017-11-23T00:02:36.432Z,4.90
2017-11-23T00:02:40.662Z,4.90
2017-11-23T00:02:45.696Z,4.90
2017-11-23T00:02:50.693Z,4.90
2017-11-23T00:02:54.953Z,4.87
2017-11-23T00:02:59.213Z,4.70
2017-11-23T00:03:04.226Z,4.80
2017-11-23T00:03:09.235Z,4.70
2017-11-23T00:03:13.500Z,4.60
2017-11-23T00:03:17.767Z,4.47
2017-11-23T00:03:22.014Z,4.45
2017-11-23T00:03:26.280Z,4.50
2017-11-23T00:03:30.533Z,4.50
2017-11-23T00:03:34.793Z,4.50
2017-11-23T00:03:39.059Z,4.55
2017-11-23T00:03:43.304Z,4.50
2017-11-23T00:03:47.555Z,4.43
2017-11-23T00:03:51.836Z,4.30
2017-11-23T00:03:56.080Z,4.50
2017-11-23T00:04:00.337Z,4.60
2017-11-23T00:04:04.607Z,4.73
2017-11-23T00:04:08.850Z,4.95
2017-11-23T00:04:13.893Z,4.90
2017-11-23T00:04:18.174Z,5.00
2017-11-23T00:04:23.172Z,5.00
2017-11-23T00:04:27.449Z,5.00
2017-11-23T00:04:31.686Z,5.00
2017-11-23T00:04:36.695Z,4.90
2017-11-23T00:04:41.725Z,4.83
2017-11-23T00:04:46.749Z,4.83
2017-11-23T00:04:51.749Z,5.00
2017-11-23T00:04:56.006Z,4.93
2017-11-23T00:05:00.290Z,4.87
2017-11-23T00:05:04.572Z,4.70
2017-11-23T00:05:09.602Z,4.60
2017-11-23T00:05:13.834Z,4.67
2017-11-23T00:05:18.100Z,4.63
2017-11-23T00:05:22.336Z,4.80
2017-11-23T00:05:26.606Z,4.85
2017-11-23T00:06:38.649Z,5.40
2017-11-23T00:06:42.920Z,5.37
2017-11-23T00:06:47.234Z,5.20
2017-11-23T00:06:51.478Z,5.20
2017-11-23T00:06:56.495Z,5.20
2017-11-23T00:07:01.536Z,5.20
2017-11-23T00:07:06.530Z,5.17
2017-11-23T00:07:11.546Z,5.10
2017-11-23T00:07:16.592Z,5.23
2017-11-23T00:07:20.895Z,5.30
2017-11-23T00:07:25.132Z,5.20
2017-11-23T00:07:29.374Z,5.10
2017-11-23T00:07:34.401Z,5.10
2017-11-23T00:07:39.423Z,5.00
2017-11-23T00:07:43.688Z,5.03
2017-11-23T00:07:47.941Z,5.10
2017-11-23T00:07:52.192Z,4.90
2017-11-23T00:07:56.451Z,4.80
2017-11-23T00:08:00.717Z,4.80
2017-11-23T00:08:04.975Z,4.80
2017-11-23T00:08:09.231Z,4.80
2017-11-23T00:08:13.504Z,4.80
2017-11-23T00:08:18.523Z,4.70
2017-11-23T00:08:23.568Z,4.63
2017-11-23T00:08:27.819Z,4.70
2017-11-23T00:08:32.053Z,4.70
2017-11-23T00:08:36.312Z,4.93
2017-11-23T00:08:40.566Z,4.90
2017-11-23T00:08:44.816Z,4.90
2017-11-23T00:08:49.077Z,5.10
2017-11-23T00:08:53.348Z,5.20
2017-11-23T00:08:58.388Z,5.20
2017-11-23T00:09:02.639Z,5.20
2017-11-23T00:09:06.908Z,5.20
2017-11-23T00:09:11.169Z,5.20
2017-11-23T00:09:16.214Z,5.05
2017-11-23T00:09:20.489Z,5.10
2017-11-23T00:09:25.511Z,5.10
2017-11-23T00:09:30.528Z,5.10
2017-11-23T00:09:35.565Z,5.00
2017-11-23T00:09:39.814Z,4.80
2017-11-23T00:09:44.079Z,4.87
2017-11-23T00:09:48.321Z,4.85
2017-11-23T00:09:52.577Z,4.65
2017-11-23T00:09:56.845Z,4.60
2017-11-23T00:10:01.863Z,4.65
2017-11-23T00:10:06.110Z,4.60
2017-11-23T00:10:10.372Z,4.70
2017-11-23T00:10:14.629Z,4.70
2017-11-23T00:10:18.926Z,4.70
2017-11-23T00:10:23.178Z,4.60
2017-11-23T00:10:27.422Z,4.70
2017-11-23T00:10:31.678Z,4.70
2017-11-23T00:10:35.948Z,4.80
2017-11-23T00:10:40.985Z,4.95
2017-11-23T00:10:45.252Z,4.93
2017-11-23T00:10:49.510Z,4.90
2017-11-23T00:10:53.799Z,4.90
2017-11-23T00:10:58.037Z,4.90
2017-11-23T00:11:02.319Z,4.90
2017-11-23T00:11:06.566Z,5.00
2017-11-23T00:11:10.835Z,4.95
2017-11-23T00:11:15.078Z,4.90
2017-11-23T00:11:20.095Z,5.05
2017-11-23T00:11:25.100Z,5.20
2017-11-23T00:11:29.345Z,5.10
2017-11-23T00:11:33.595Z,5.00
2017-11-23T00:11:37.853Z,5.10
2017-11-23T00:11:42.108Z,5.00
2017-11-23T00:11:46.353Z,5.07
2017-11-23T00:11:50.602Z,5.20
2017-11-23T00:11:54.865Z,5.20
2017-11-23T00:11:59.113Z,5.20
2017-11-23T00:12:04.137Z,5.10
2017-11-23T00:12:09.175Z,5.10
2017-11-23T00:12:14.181Z,5.20
2017-11-23T00:12:19.193Z,5.10
2017-11-23T00:12:24.227Z,5.07
2017-11-23T00:12:28.480Z,5.07
2017-11-23T00:12:32.727Z,5.00
2017-11-23T00:12:36.985Z,4.80
2017-11-23T00:12:41.251Z,4.80
2017-11-23T00:12:45.500Z,4.75
2017-11-23T00:12:50.515Z,4.70
2017-11-23T00:12:54.766Z,4.77
2017-11-23T00:12:59.032Z,4.80
2017-11-23T00:13:04.056Z,4.80
2017-11-23T00:13:09.071Z,4.77
2017-11-23T00:13:14.106Z,4.70
2017-11-23T00:13:18.349Z,4.80
2017-11-23T00:13:22.598Z,4.80
2017-11-23T00:13:26.870Z,4.90
2017-11-23T00:13:31.902Z,4.90
2017-11-23T00:13:36.154Z,5.00
2017-11-23T00:13:40.409Z,5.00
2017-11-23T00:13:44.666Z,5.00
2017-11-23T00:13:48.937Z,4.90
2017-11-23T00:13:53.174Z,4.90
2017-11-23T00:13:57.443Z,4.80
2017-11-23T00:14:01.752Z,4.80
2017-11-23T00:14:06.013Z,4.80
2017-11-23T00:14:10.267Z,4.90
2017-11-23T00:14:14.522Z,4.90
2017-11-23T00:14:18.778Z,5.00
2017-11-23T00:14:23.037Z,4.95
2017-11-23T00:14:27.283Z,4.85
2017-11-23T00:14:31.547Z,4.77
2017-11-23T00:14:35.809Z,4.70
2017-11-23T00:14:40.826Z,4.70
2017-11-23T00:14:45.834Z,4.70
2017-11-23T00:14:50.074Z,4.70
2017-11-23T00:14:54.328Z,4.60
2017-11-23T00:14:59.337Z,4.60
2017-11-23T00:15:03.586Z,4.63
2017-11-23T00:15:07.856Z,4.60
2017-11-23T00:15:12.880Z,4.50
2017-11-23T00:15:17.130Z,4.37
2017-11-23T00:15:21.417Z,4.30
2017-11-23T00:15:25.656Z,4.30
2017-11-23T00:15:29.889Z,4.40
2017-11-23T00:15:34.156Z,4.47
2017-11-23T00:15:38.415Z,4.40
2017-11-23T00:15:42.668Z,4.40
2017-11-23T00:15:46.911Z,4.40
2017-11-23T00:15:51.176Z,4.40
2017-11-23T00:15:56.194Z,4.50
2017-11-23T00:16:01.218Z,4.40
2017-11-23T00:16:06.237Z,4.47
2017-11-23T00:16:11.270Z,4.50
2017-11-23T00:16:15.528Z,4.50
2017-11-23T00:16:20.563Z,4.50
2017-11-23T00:16:25.578Z,4.37
2017-11-23T00:16:30.603Z,4.30
2017-11-23T00:16:35.625Z,4.25
2017-11-23T00:16:40.681Z,4.30
2017-11-23T00:16:44.941Z,4.40
2017-11-23T00:16:49.949Z,4.40
2017-11-23T00:16:55.008Z,4.33
2017-11-23T00:16:59.265Z,4.30
2017-11-23T00:17:04.273Z,4.30
2017-11-23T00:17:08.528Z,4.30
2017-11-23T00:17:12.777Z,4.40
2017-11-23T00:17:17.032Z,4.50
2017-11-23T00:17:21.283Z,4.60
2017-11-23T00:17:25.539Z,4.90
2017-11-23T00:17:29.783Z,4.90
2017-11-23T00:17:34.819Z,4.90
2017-11-23T00:17:39.857Z,4.83
2017-11-23T00:17:44.117Z,4.80
2017-11-23T00:17:48.377Z,4.80
2017-11-23T00:17:52.640Z,4.97
2017-11-23T00:17:57.689Z,5.00
2017-11-23T00:18:01.935Z,5.00
2017-11-23T00:18:06.181Z,5.00
2017-11-23T00:18:10.440Z,4.90
2017-11-23T00:18:14.681Z,4.90
2017-11-23T00:18:18.940Z,4.80
2017-11-23T00:18:23.174Z,4.70
2017-11-23T00:18:27.448Z,4.60
2017-11-23T00:18:31.690Z,4.70
2017-11-23T00:18:35.948Z,4.70
2017-11-23T00:18:40.976Z,4.80
2017-11-23T00:18:45.974Z,4.90
2017-11-23T00:18:50.223Z,4.90
2017-11-23T00:18:54.482Z,4.95
2017-11-23T00:18:58.748Z,5.10
2017-11-23T00:19:02.986Z,5.10
2017-11-23T00:19:08.028Z,5.03
2017-11-23T00:19:12.300Z,5.03
2017-11-23T00:19:16.549Z,5.05
2017-11-23T00:19:20.786Z,5.10
2017-11-23T00:19:25.027Z,5.10
2017-11-23T00:19:29.287Z,5.27
2017-11-23T00:19:33.540Z,5.20
2017-11-23T00:19:37.812Z,5.25
2017-11-23T00:19:43.279Z,5.20
2017-11-23T00:19:47.660Z,5.20
2017-11-23T00:19:52.064Z,5.10
2017-11-23T00:19:56.469Z,5.00
2017-11-23T00:20:00.754Z,5.00
2017-11-23T00:20:05.758Z,5.00
2017-11-23T00:20:10.024Z,4.83
2017-11-23T00:20:14.278Z,4.90
2017-11-23T00:20:19.304Z,4.90
2017-11-23T00:20:23.547Z,4.90
2017-11-23T00:20:27.790Z,4.77
2017-11-23T00:20:32.801Z,4.70
2017-11-23T00:20:37.836Z,4.80
2017-11-23T00:20:42.875Z,4.80
2017-11-23T00:20:47.129Z,4.80
2017-11-23T00:20:51.397Z,4.80
2017-11-23T00:20:55.651Z,4.77
2017-11-23T00:20:59.906Z,4.75
2017-11-23T00:21:04.280Z,4.80
2017-11-23T00:21:08.753Z,4.97
2017-11-23T00:21:13.817Z,5.05
2017-11-23T00:21:18.068Z,5.00
2017-11-23T00:21:23.067Z,4.90
2017-11-23T00:21:27.313Z,4.90
2017-11-23T00:21:31.591Z,4.73
2017-11-23T00:21:36.624Z,4.70
2017-11-23T00:21:40.911Z,4.60
2017-11-23T00:21:45.935Z,4.50
2017-11-23T00:21:50.952Z,4.40
2017-11-23T00:21:55.959Z,4.40
2017-11-23T00:22:00.985Z,4.40
2017-11-23T00:22:05.238Z,4.50
2017-11-23T00:22:09.496Z,4.43
2017-11-23T00:22:13.764Z,4.40
2017-11-23T00:22:18.076Z,4.60
2017-11-23T00:22:23.078Z,4.50
2017-11-23T00:22:28.103Z,4.50
2017-11-23T00:22:33.133Z,4.60
2017-11-23T00:22:38.155Z,4.60
2017-11-23T00:22:42.454Z,4.70
2017-11-23T00:22:47.517Z,4.80
2017-11-23T00:22:51.793Z,4.87
2017-11-23T00:22:56.060Z,4.90
2017-11-23T00:23:00.311Z,5.03
2017-11-23T00:23:04.565Z,5.10
2017-11-23T00:23:08.810Z,5.00
2017-11-23T00:23:13.079Z,5.00
2017-11-23T00:23:18.124Z,4.95
2017-11-23T00:23:22.393Z,5.07
2017-11-23T00:23:26.651Z,5.10
2017-11-23T00:23:30.911Z,5.20
2017-11-23T00:23:35.170Z,5.20
2017-11-23T00:23:39.417Z,5.20
2017-11-23T00:23:43.649Z,5.25
2017-11-23T00:23:47.944Z,5.30
2017-11-23T00:23:52.170Z,5.30
2017-11-23T00:23:56.410Z,5.20
2017-11-23T00:24:00.663Z,5.00
2017-11-23T00:24:04.932Z,4.90
2017-11-23T00:24:09.169Z,4.95
2017-11-23T00:24:13.429Z,5.00
2017-11-23T00:24:17.669Z,5.10
2017-11-23T00:24:21.931Z,4.90
2017-11-23T00:24:26.189Z,4.90
2017-11-23T00:24:30.435Z,4.80
2017-11-23T00:24:34.700Z,4.77
2017-11-23T00:24:39.768Z,4.70
2017-11-23T00:24:44.014Z,4.60
2017-11-23T00:24:48.299Z,4.55
2017-11-23T00:24:52.540Z,4.50
2017-11-23T00:24:56.779Z,4.60
2017-11-23T00:25:01.040Z,4.50
2017-11-23T00:25:05.292Z,4.50
2017-11-23T00:25:09.563Z,4.50
2017-11-23T00:25:13.818Z,4.50
2017-11-23T00:25:18.823Z,4.55
2017-11-23T00:25:23.069Z,4.70
2017-11-23T00:25:27.300Z,4.70
2017-11-23T00:25:31.564Z,4.83
2017-11-23T00:25:35.821Z,5.00
2017-11-23T00:25:40.077Z,5.00
2017-11-23T00:25:44.324Z,5.03
2017-11-23T00:25:48.569Z,5.10
2017-11-23T00:25:52.834Z,5.10
2017-11-23T00:25:57.084Z,5.10
2017-11-23T00:26:01.343Z,5.17
2017-11-23T00:26:06.373Z,5.15
2017-11-23T00:26:10.609Z,5.10
2017-11-23T00:26:14.872Z,5.10
2017-11-23T00:26:19.130Z,5.00
2017-11-23T00:26:23.388Z,5.00
2017-11-23T00:26:27.727Z,4.95
2017-11-23T00:26:31.978Z,4.90
2017-11-23T00:26:36.226Z,4.70
2017-11-23T00:26:40.494Z,4.70
2017-11-23T00:26:45.517Z,4.70
2017-11-23T00:26:49.754Z,4.60
2017-11-23T00:26:54.015Z,4.67
2017-11-23T00:26:58.259Z,4.70
2017-11-23T00:27:02.517Z,4.70
2017-11-23T00:27:06.765Z,4.75
2017-11-23T00:27:11.028Z,4.73
2017-11-23T00:27:15.288Z,4.70
2017-11-23T00:27:19.545Z,4.60
2017-11-23T00:27:23.785Z,4.67
2017-11-23T00:27:28.798Z,4.80
2017-11-23T00:27:33.046Z,4.87
2017-11-23T00:27:37.305Z,4.90
2017-11-23T00:27:42.314Z,4.80
2017-11-23T00:27:47.324Z,4.70
2017-11-23T00:27:52.350Z,4.80
2017-11-23T00:27:57.373Z,4.70
2017-11-23T00:28:02.391Z,4.80
2017-11-23T00:28:07.399Z,5.07
2017-11-23T00:28:12.423Z,5.17
2017-11-23T00:28:17.443Z,5.23
2017-11-23T00:28:22.446Z,5.40
2017-11-23T00:28:27.454Z,5.30
2017-11-23T00:28:31.704Z,5.40
2017-11-23T00:28:35.951Z,5.40
2017-11-23T00:28:40.208Z,5.40
2017-11-23T00:28:44.468Z,5.40
2017-11-23T00:28:48.858Z,5.50
2017-11-23T00:28:53.099Z,5.50
2017-11-23T00:28:57.376Z,5.43
2017-11-23T00:29:02.385Z,5.50
2017-11-23T00:29:06.644Z,5.33
2017-11-23T00:29:10.894Z,5.30
2017-11-23T00:29:15.910Z,5.10
2017-11-23T00:29:20.956Z,5.10
2017-11-23T00:29:25.232Z,5.20
2017-11-23T00:29:30.245Z,5.10
2017-11-23T00:29:34.491Z,4.97
2017-11-23T00:29:38.748Z,5.00
2017-11-23T00:29:43.768Z,4.95
2017-11-23T00:29:48.822Z,4.83
2017-11-23T00:29:53.087Z,4.80
2017-11-23T00:29:58.092Z,4.80
2017-11-23T00:30:02.348Z,4.80
2017-11-23T00:30:06.604Z,4.80
2017-11-23T00:30:11.613Z,4.80
2017-11-23T00:30:16.661Z,4.83
2017-11-23T00:30:20.899Z,4.77
2017-11-23T00:30:25.183Z,4.67
2017-11-23T00:30:29.409Z,4.60
2017-11-23T00:30:33.665Z,4.70
2017-11-23T00:30:37.900Z,4.70
2017-11-23T00:30:42.151Z,4.80
2017-11-23T00:30:47.182Z,4.90
2017-11-23T00:30:51.470Z,5.00
2017-11-23T00:30:56.501Z,4.95
2017-11-23T00:31:00.761Z,4.90
2017-11-23T00:31:05.036Z,4.90
2017-11-23T00:31:09.270Z,4.80
2017-11-23T00:31:13.518Z,4.80
2017-11-23T00:31:17.803Z,4.90
2017-11-23T00:31:22.056Z,4.90
2017-11-23T00:31:26.302Z,5.00
2017-11-23T00:31:30.587Z,5.05
2017-11-23T00:31:34.862Z,5.00
2017-11-23T00:31:39.131Z,5.10
2017-11-23T00:31:43.387Z,5.10
2017-11-23T00:31:48.423Z,5.10
2017-11-23T00:31:52.695Z,5.20
2017-11-23T00:31:57.724Z,5.30
2017-11-23T00:32:02.752Z,5.20
2017-11-23T00:32:07.764Z,5.30
2017-11-23T00:32:12.796Z,5.30
2017-11-23T00:32:17.057Z,5.30
2017-11-23T00:32:21.318Z,5.20
2017-11-23T00:32:25.576Z,5.20
2017-11-23T00:32:30.598Z,5.10
2017-11-23T00:32:35.630Z,5.20
2017-11-23T00:32:40.661Z,5.10
2017-11-23T00:32:44.920Z,5.10
2017-11-23T00:32:49.157Z,5.00
2017-11-23T00:32:53.432Z,4.97
2017-11-23T00:32:58.464Z,4.80
2017-11-23T00:33:02.720Z,4.70
2017-11-23T00:33:06.983Z,4.60
2017-11-23T00:33:11.234Z,4.60
2017-11-23T00:33:15.534Z,4.70
2017-11-23T00:33:19.779Z,4.70
2017-11-23T00:33:24.021Z,4.75
2017-11-23T00:33:28.281Z,4.90
2017-11-23T00:33:32.545Z,4.80
2017-11-23T00:33:36.804Z,4.80
2017-11-23T00:33:41.047Z,4.80
2017-11-23T00:33:46.076Z,4.90
2017-11-23T00:33:51.089Z,4.80
2017-11-23T00:33:56.102Z,4.83
2017-11-23T00:34:00.360Z,4.97
2017-11-23T00:34:04.597Z,5.00
2017-11-23T00:34:09.618Z,4.95
2017-11-23T00:34:13.861Z,5.00
2017-11-23T00:34:18.135Z,5.00
2017-11-23T00:34:23.164Z,5.10
2017-11-23T00:34:27.416Z,4.90
2017-11-23T00:34:31.654Z,4.90
2017-11-23T00:34:35.914Z,4.97
2017-11-23T00:34:40.187Z,5.10
2017-11-23T00:34:44.435Z,5.20
2017-11-23T00:34:48.688Z,5.30
2017-11-23T00:34:52.938Z,5.40
2017-11-23T00:34:57.960Z,5.40
2017-11-23T00:35:02.974Z,5.47
2017-11-23T00:35:08.011Z,5.50
2017-11-23T00:35:13.023Z,5.43
2017-11-23T00:35:18.047Z,5.43
2017-11-23T00:35:23.045Z,5.30
2017-11-23T00:35:28.139Z,5.30
2017-11-23T00:35:32.382Z,5.30
2017-11-23T00:35:37.399Z,5.10
2017-11-23T00:35:42.405Z,4.80
2017-11-23T00:35:46.680Z,4.70
2017-11-23T00:35:50.913Z,4.70
2017-11-23T00:35:56.019Z,4.80
2017-11-23T00:36:00.264Z,4.67
2017-11-23T00:36:04.518Z,4.63
2017-11-23T00:36:08.762Z,4.80
2017-11-23T00:36:13.016Z,4.90
2017-11-23T00:36:17.279Z,4.80
2017-11-23T00:36:21.522Z,4.90
2017-11-23T00:36:25.766Z,5.00
2017-11-23T00:36:30.025Z,5.00
2017-11-23T00:36:34.261Z,5.10
2017-11-23T00:36:38.511Z,5.10
2017-11-23T00:36:42.759Z,5.10
2017-11-23T00:36:47.024Z,5.00
2017-11-23T00:36:52.031Z,5.07
2017-11-23T00:36:56.304Z,5.00
2017-11-23T00:37:00.559Z,4.90
2017-11-23T00:37:05.572Z,4.85
2017-11-23T00:37:09.823Z,4.70
2017-11-23T00:37:14.078Z,4.70
2017-11-23T00:37:19.091Z,4.95
2017-11-23T00:37:24.106Z,4.93
2017-11-23T00:37:29.140Z,5.00
2017-11-23T00:37:33.386Z,4.90
2017-11-23T00:37:38.394Z,4.90
2017-11-23T00:37:54.080Z,4.80
2017-11-23T00:37:58.330Z,5.40
2017-11-23T00:38:02.596Z,5.23
2017-11-23T00:38:06.852Z,5.05
2017-11-23T00:38:11.107Z,5.27
2017-11-23T00:38:16.129Z,5.60
2017-11-23T00:38:21.163Z,5.40
2017-11-23T00:38:25.406Z,5.27
2017-11-23T00:38:29.653Z,5.20
2017-11-23T00:38:33.920Z,5.17
2017-11-23T00:38:38.187Z,5.10
2017-11-23T00:38:42.443Z,4.90
2017-11-23T00:38:47.450Z,4.90
2017-11-23T00:38:51.708Z,4.90
2017-11-23T00:38:55.994Z,4.90
2017-11-23T00:39:00.240Z,4.85
2017-11-23T00:39:05.282Z,4.90
2017-11-23T00:39:09.533Z,5.00
2017-11-23T00:39:13.793Z,4.87
2017-11-23T00:39:18.814Z,4.85
2017-11-23T00:39:23.074Z,5.03
2017-11-23T00:39:27.325Z,5.10
2017-11-23T00:39:31.578Z,5.07
2017-11-23T00:39:35.837Z,5.00
2017-11-23T00:39:40.073Z,5.10
2017-11-23T00:39:55.818Z,5.27
2017-11-23T00:40:00.078Z,5.20
2017-11-23T00:40:05.095Z,5.20
2017-11-23T00:40:10.114Z,5.07
2017-11-23T00:40:15.117Z,5.00
2017-11-23T00:40:19.378Z,5.00
2017-11-23T00:40:23.634Z,4.90
2017-11-23T00:40:28.643Z,5.00
2017-11-23T00:40:33.650Z,4.90
2017-11-23T00:40:37.900Z,4.90
2017-11-23T00:40:42.150Z,4.90
2017-11-23T00:40:46.425Z,4.83
2017-11-23T00:40:50.662Z,4.95
2017-11-23T00:40:54.924Z,5.10
2017-11-23T00:40:59.188Z,5.10
2017-11-23T00:41:03.425Z,5.20
2017-11-23T00:41:07.670Z,5.25
2017-11-23T00:41:12.692Z,5.30
2017-11-23T00:41:17.707Z,5.40
2017-11-23T00:41:22.727Z,5.40
2017-11-23T00:41:27.745Z,5.40
2017-11-23T00:41:32.764Z,5.40
2017-11-23T00:41:37.768Z,5.40
2017-11-23T00:41:42.794Z,5.40
2017-11-23T00:41:47.807Z,5.40
2017-11-23T00:41:52.816Z,5.40
2017-11-23T00:41:57.081Z,5.40
2017-11-23T00:42:01.326Z,5.50
2017-11-23T00:42:06.364Z,5.40
2017-11-23T00:42:11.374Z,5.20
2017-11-23T00:42:16.383Z,5.00
2017-11-23T00:42:21.418Z,4.80
2017-11-23T00:42:25.699Z,4.80
2017-11-23T00:42:30.704Z,4.70
2017-11-23T00:42:34.976Z,4.87
2017-11-23T00:42:39.243Z,4.90
2017-11-23T00:42:44.241Z,4.75
2017-11-23T00:42:49.291Z,4.70
2017-11-23T00:42:53.546Z,4.60
2017-11-23T00:42:58.553Z,4.53
2017-11-23T00:43:02.821Z,4.40
2017-11-23T00:43:07.063Z,4.45
2017-11-23T00:43:11.320Z,4.50
2017-11-23T00:43:15.585Z,4.57
2017-11-23T00:43:19.847Z,4.75
2017-11-23T00:43:24.089Z,4.70
2017-11-23T00:43:28.327Z,4.70
2017-11-23T00:43:32.574Z,4.70
2017-11-23T00:43:36.834Z,4.70
2017-11-23T00:43:41.097Z,4.70
2017-11-23T00:43:45.360Z,4.80
2017-11-23T00:43:49.617Z,4.90
2017-11-23T00:43:53.859Z,4.90
2017-11-23T00:43:58.114Z,4.85
2017-11-23T00:44:02.346Z,4.80
2017-11-23T00:44:06.589Z,4.80
2017-11-23T00:44:10.839Z,4.90
2017-11-23T00:44:15.090Z,5.00
2017-11-23T00:44:19.347Z,4.90
2017-11-23T00:44:23.597Z,4.90
2017-11-23T00:44:27.843Z,4.90
2017-11-23T00:44:32.083Z,4.80
2017-11-23T00:44:36.357Z,4.80
2017-11-23T00:44:40.630Z,4.80
2017-11-23T00:44:44.885Z,4.80
2017-11-23T00:44:49.171Z,4.80
2017-11-23T00:44:53.419Z,4.80
2017-11-23T00:44:57.679Z,4.90
2017-11-23T00:45:02.679Z,4.95
2017-11-23T00:45:06.954Z,5.00
2017-11-23T00:45:11.206Z,4.90
2017-11-23T00:45:15.445Z,4.95
2017-11-23T00:45:19.691Z,5.05
2017-11-23T00:45:23.954Z,5.10
2017-11-23T00:45:28.210Z,5.10
2017-11-23T00:45:32.455Z,5.10
2017-11-23T00:45:36.709Z,5.20
2017-11-23T00:45:40.961Z,5.20
2017-11-23T00:45:45.220Z,5.30
2017-11-23T00:45:49.464Z,5.20
2017-11-23T00:45:53.721Z,5.10
2017-11-23T00:45:57.967Z,5.10
2017-11-23T00:46:02.224Z,5.00
2017-11-23T00:46:06.474Z,5.00
2017-11-23T00:46:10.723Z,5.10
2017-11-23T00:46:14.988Z,5.00
2017-11-23T00:46:19.230Z,5.00
2017-11-23T00:46:23.467Z,5.10
2017-11-23T00:46:27.714Z,5.20
2017-11-23T00:46:31.967Z,5.20
2017-11-23T00:46:36.226Z,5.10
2017-11-23T00:46:40.477Z,5.20
2017-11-23T00:46:44.763Z,5.17
2017-11-23T00:46:49.021Z,5.10
2017-11-23T00:46:53.260Z,5.20
2017-11-23T00:46:57.513Z,5.27
2017-11-23T00:47:01.760Z,5.30
2017-11-23T00:47:05.998Z,5.30
2017-11-23T00:47:11.005Z,5.40
2017-11-23T00:47:16.044Z,5.40
2017-11-23T00:47:21.057Z,5.40
2017-11-23T00:47:26.083Z,5.30
2017-11-23T00:47:30.327Z,5.30
2017-11-23T00:47:34.581Z,5.43
2017-11-23T00:47:39.616Z,5.40
2017-11-23T00:47:43.864Z,5.30
2017-11-23T00:47:48.118Z,5.40
2017-11-23T00:47:52.369Z,5.33
2017-11-23T00:47:56.625Z,5.40
2017-11-23T00:48:00.871Z,5.40
2017-11-23T00:48:05.125Z,5.45
2017-11-23T00:48:09.398Z,5.50
2017-11-23T00:48:13.648Z,5.50
2017-11-23T00:48:17.882Z,5.35
2017-11-23T00:48:22.902Z,5.23
2017-11-23T00:48:27.918Z,5.03
2017-11-23T00:48:32.929Z,5.00
2017-11-23T00:48:37.943Z,5.03
2017-11-23T00:48:42.369Z,5.07
2017-11-23T00:48:47.370Z,5.00
2017-11-23T00:48:51.628Z,5.00
2017-11-23T00:48:55.871Z,4.90
2017-11-23T00:49:00.122Z,4.90
2017-11-23T00:49:04.385Z,4.80
2017-11-23T00:49:09.386Z,4.70
2017-11-23T00:49:13.660Z,4.70
2017-11-23T00:49:17.894Z,4.83
2017-11-23T00:49:22.934Z,4.90
2017-11-23T00:49:27.941Z,5.00
2017-11-23T00:49:32.962Z,5.07
2017-11-23T00:49:37.988Z,5.00
2017-11-23T00:49:42.241Z,4.97
2017-11-23T00:49:46.477Z,5.00
2017-11-23T00:49:51.515Z,5.03
2017-11-23T00:49:55.748Z,5.30
2017-11-23T00:49:59.996Z,5.30
2017-11-23T00:50:05.010Z,5.30
2017-11-23T00:50:10.015Z,5.20
2017-11-23T00:50:14.271Z,5.30
2017-11-23T00:50:18.506Z,5.20
2017-11-23T00:50:22.771Z,5.30
2017-11-23T00:50:27.017Z,5.30
2017-11-23T00:50:32.038Z,5.20
2017-11-23T00:50:36.275Z,5.30
2017-11-23T00:50:40.548Z,5.30
2017-11-23T00:50:45.558Z,5.30
2017-11-23T00:50:49.841Z,5.30
2017-11-23T00:50:54.104Z,5.30
2017-11-23T00:50:58.361Z,5.20
2017-11-23T00:51:03.387Z,5.30
2017-11-23T00:51:08.382Z,5.33
2017-11-23T00:51:12.634Z,5.37
2017-11-23T00:51:17.660Z,5.35
2017-11-23T00:51:21.924Z,5.30
2017-11-23T00:51:26.949Z,5.20
2017-11-23T00:51:31.212Z,5.30
2017-11-23T00:51:36.232Z,5.30
2017-11-23T00:51:40.497Z,5.30
2017-11-23T00:51:44.757Z,5.30
2017-11-23T00:51:49.773Z,5.30
2017-11-23T00:51:54.775Z,5.20
2017-11-23T00:51:59.024Z,5.20
2017-11-23T00:52:03.289Z,5.37
2017-11-23T00:52:08.320Z,5.40
2017-11-23T00:52:13.356Z,5.40
2017-11-23T00:52:17.604Z,5.40
2017-11-23T00:52:21.856Z,5.40
2017-11-23T00:52:26.144Z,5.47
2017-11-23T00:52:30.397Z,5.40
2017-11-23T00:52:36.158Z,5.40
2017-11-23T00:52:41.229Z,5.45
2017-11-23T00:52:45.482Z,5.60
2017-11-23T00:52:50.508Z,5.60
2017-11-23T00:52:55.565Z,5.50
2017-11-23T00:52:59.809Z,5.47
2017-11-23T00:53:04.066Z,5.20
2017-11-23T00:53:08.315Z,5.25
2017-11-23T00:53:12.568Z,5.20
2017-11-23T00:53:16.816Z,5.10
2017-11-23T00:53:21.833Z,5.10
2017-11-23T00:53:26.858Z,5.10
2017-11-23T00:53:31.872Z,5.17
2017-11-23T00:53:36.890Z,5.20
2017-11-23T00:53:41.910Z,5.20
2017-11-23T00:53:46.935Z,5.03
2017-11-23T00:53:51.205Z,4.97
2017-11-23T00:53:55.442Z,5.00
2017-11-23T00:53:59.692Z,5.10
2017-11-23T00:54:03.960Z,5.05
2017-11-23T00:54:08.198Z,5.05
2017-11-23T00:54:12.452Z,5.15
2017-11-23T00:54:16.701Z,5.20
2017-11-23T00:54:20.972Z,5.20
2017-11-23T00:54:25.228Z,5.30
2017-11-23T00:54:30.236Z,5.27
2017-11-23T00:54:35.259Z,5.20
2017-11-23T00:54:39.502Z,5.03
2017-11-23T00:54:43.770Z,5.10
2017-11-23T00:54:48.784Z,5.20
2017-11-23T00:54:53.817Z,5.20
2017-11-23T00:54:58.821Z,5.10
2017-11-23T00:55:03.848Z,5.10
2017-11-23T00:55:08.868Z,5.10
2017-11-23T00:55:13.120Z,5.00
2017-11-23T00:55:17.382Z,5.00
2017-11-23T00:55:21.621Z,5.00
2017-11-23T00:55:26.630Z,4.90
2017-11-23T00:55:30.888Z,4.90
2017-11-23T00:55:35.148Z,5.00
2017-11-23T00:55:39.390Z,4.95
2017-11-23T00:55:43.653Z,4.90
2017-11-23T00:55:47.893Z,5.00
2017-11-23T00:55:52.163Z,5.10
2017-11-23T00:55:56.409Z,5.10
2017-11-23T00:56:00.658Z,5.10
2017-11-23T00:56:05.278Z,5.10
2017-11-23T00:56:09.521Z,5.03
2017-11-23T00:56:13.780Z,5.00
2017-11-23T00:56:18.044Z,5.03
2017-11-23T00:56:22.284Z,5.15
2017-11-23T00:56:27.293Z,5.15
2017-11-23T00:56:31.529Z,5.10
2017-11-23T00:56:35.788Z,5.10
2017-11-23T00:56:40.072Z,5.13
2017-11-23T00:56:44.320Z,5.05
2017-11-23T00:56:48.572Z,5.00
2017-11-23T00:56:52.837Z,4.90
2017-11-23T00:56:57.103Z,5.00
2017-11-23T00:57:02.121Z,5.10
2017-11-23T00:57:07.157Z,5.10
2017-11-23T00:57:11.407Z,5.17
2017-11-23T00:57:15.654Z,5.20
2017-11-23T00:57:20.669Z,5.10
2017-11-23T00:57:25.689Z,5.10
2017-11-23T00:57:30.732Z,5.10
2017-11-23T00:57:34.991Z,5.10
2017-11-23T00:57:39.241Z,5.15
2017-11-23T00:57:43.493Z,5.30
2017-11-23T00:57:47.751Z,5.30
2017-11-23T00:57:52.001Z,5.30
2017-11-23T00:57:56.247Z,5.20
2017-11-23T00:58:00.495Z,5.03
2017-11-23T00:58:05.507Z,5.00
2017-11-23T00:58:10.548Z,4.93
2017-11-23T00:58:15.562Z,4.90
2017-11-23T00:58:20.583Z,4.80
2017-11-23T00:58:25.613Z,4.70
2017-11-23T00:58:29.865Z,4.80
2017-11-23T00:58:34.120Z,5.00
2017-11-23T00:58:38.356Z,4.97
2017-11-23T00:58:42.599Z,4.90
2017-11-23T00:58:47.617Z,4.90
2017-11-23T00:58:52.634Z,4.90
2017-11-23T00:58:56.878Z,5.00
2017-11-23T00:59:01.113Z,5.00
2017-11-23T00:59:06.135Z,5.00
2017-11-23T00:59:11.142Z,5.07
2017-11-23T00:59:15.398Z,5.10
2017-11-23T00:59:19.656Z,5.20
2017-11-23T00:59:24.676Z,5.20
2017-11-23T00:59:29.697Z,5.13
2017-11-23T00:59:33.953Z,4.93
2017-11-23T00:59:38.966Z,4.80
2017-11-23T00:59:43.233Z,4.70
2017-11-23T00:59:47.478Z,4.80
2017-11-23T00:59:51.726Z,4.70
2017-11-23T00:59:55.995Z,4.60
2017-11-23T01:00:00.265Z,4.65
2017-11-23T01:00:04.525Z,4.70
2017-11-23T01:00:08.788Z,4.80
2017-11-23T01:00:13.048Z,4.77
2017-11-23T01:00:17.303Z,4.90
2017-11-23T01:00:22.336Z,4.90
2017-11-23T01:00:27.356Z,4.93
2017-11-23T01:00:32.378Z,5.07
2017-11-23T01:00:37.406Z,5.10
2017-11-23T01:00:41.712Z,5.10
2017-11-23T01:00:45.977Z,5.10
2017-11-23T01:00:51.028Z,5.15
2017-11-23T01:00:55.266Z,5.20
2017-11-23T01:00:59.523Z,5.20
2017-11-23T01:01:03.805Z,5.27
2017-11-23T01:01:08.832Z,5.20
2017-11-23T01:01:13.090Z,5.10
2017-11-23T01:01:17.355Z,5.10
2017-11-23T01:01:21.599Z,5.17
2017-11-23T01:01:25.850Z,5.20